createdAt,value
2019-01-29T06:24:32.571Z,3
2019-01-29T06:30:32.937Z,7
2019-01-29T06:33:33.130Z,10
2019-01-29T06:35:33.236Z,13
2019-01-29T06:37:03.364Z,17
2019-01-29T06:38:33.418Z,20
2019-01-29T06:39:03.422Z,23
2019-01-29T06:40:03.524Z,27
2019-01-29T06:40:33.561Z,30
2019-01-29T06:41:03.632Z,33
2019-01-29T06:42:03.620Z,37
2019-01-29T06:42:33.663Z,40
2019-01-29T06:43:03.738Z,43
2019-01-29T06:43:33.715Z,47
2019-01-29T06:44:03.817Z,50
2019-01-29T06:44:33.779Z,57
2019-01-29T06:45:03.880Z,60
2019-01-29T06:45:33.842Z,70
2019-01-29T06:46:03.944Z,73
2019-01-29T06:46:33.908Z,80
2019-01-29T06:47:03.987Z,83
2019-01-29T06:47:34.034Z,87
2019-01-29T06:48:03.994Z,93
2019-01-29T06:48:34.055Z,100
2019-01-29T06:49:04.094Z,110
2019-01-29T06:49:34.146Z,120
2019-01-29T06:50:04.118Z,127
2019-01-29T06:50:34.194Z,133
2019-01-29T06:51:04.229Z,140
2019-01-29T06:51:34.252Z,147
2019-01-29T06:52:04.253Z,153
2019-01-29T06:52:34.311Z,160
2019-01-29T06:53:04.336Z,167
2019-01-29T06:53:34.411Z,170
2019-01-29T06:54:04.404Z,177
2019-01-29T06:54:34.520Z,183
2019-01-29T06:55:04.493Z,187
2019-01-29T06:55:34.501Z,197
2019-01-29T06:56:04.545Z,207
2019-01-29T06:56:34.535Z,217
2019-01-29T06:57:04.582Z,233
2019-01-29T06:57:34.564Z,247
2019-01-29T06:58:04.680Z,257
2019-01-29T06:58:34.623Z,270
2019-01-29T06:59:04.670Z,287
2019-01-29T06:59:34.705Z,303
2019-01-29T07:00:04.762Z,323
2019-01-29T07:00:34.808Z,347
2019-01-29T07:01:04.768Z,363
2019-01-29T07:01:34.862Z,380
2019-01-29T07:02:04.864Z,383
2019-01-29T07:02:34.865Z,373
2019-01-29T07:03:04.920Z,360
2019-01-29T07:03:35.006Z,353
2019-01-29T07:04:04.963Z,357
2019-01-29T07:04:35.030Z,380
2019-01-29T07:05:05.019Z,407
2019-01-29T07:05:35.052Z,427
2019-01-29T07:06:05.106Z,463
2019-01-29T07:06:35.107Z,473
2019-01-29T07:07:05.171Z,497
2019-01-29T07:07:35.225Z,503
2019-01-29T07:08:05.400Z,497
2019-01-29T07:08:35.279Z,523
2019-01-29T07:09:05.304Z,490
2019-01-29T07:09:35.335Z,530
2019-01-29T07:10:05.370Z,550
2019-01-29T07:10:35.396Z,530
2019-01-29T07:11:05.433Z,563
2019-01-29T07:11:35.456Z,633
2019-01-29T07:12:05.487Z,590
2019-01-29T07:12:35.564Z,473
2019-01-29T07:13:05.547Z,477
2019-01-29T07:13:35.615Z,530
2019-01-29T07:14:05.568Z,550
2019-01-29T07:14:35.662Z,577
2019-01-29T07:15:05.678Z,607
2019-01-29T07:15:35.721Z,647
2019-01-29T07:16:05.731Z,627
2019-01-29T07:16:35.777Z,610
2019-01-29T07:17:05.789Z,660
2019-01-29T07:17:35.826Z,743
2019-01-29T07:18:05.884Z,783
2019-01-29T07:18:35.896Z,813
2019-01-29T07:19:05.884Z,860
2019-01-29T07:19:35.912Z,897
2019-01-29T07:20:05.940Z,963
2019-01-29T07:20:36.075Z,1043
2019-01-29T07:21:06.043Z,1110
2019-01-29T07:21:36.052Z,1157
2019-01-29T07:22:06.100Z,1237
2019-01-29T07:22:36.142Z,1270
2019-01-29T07:23:06.166Z,1327
2019-01-29T07:23:36.184Z,1363
2019-01-29T07:24:06.246Z,1410
2019-01-29T07:24:42.567Z,1450
2019-01-29T07:25:06.318Z,1493
2019-01-29T07:25:36.291Z,1553
2019-01-29T07:26:06.384Z,1593
2019-01-29T07:26:36.341Z,1630
2019-01-29T07:27:06.402Z,1677
2019-01-29T07:27:36.450Z,1713
2019-01-29T07:28:06.465Z,1810
2019-01-29T07:28:36.529Z,1903
2019-01-29T07:29:06.523Z,1907
2019-01-29T07:30:06.553Z,1933
2019-01-29T07:30:36.628Z,1953
2019-01-29T07:31:06.649Z,2043
2019-01-29T07:31:36.730Z,2313
2019-01-29T07:32:06.675Z,2460
2019-01-29T07:32:36.750Z,2467
2019-01-29T07:33:06.773Z,2933
2019-01-29T07:33:36.798Z,2410
2019-01-29T07:34:06.836Z,1897
2019-01-29T07:34:36.833Z,1863
2019-01-29T07:35:06.906Z,1850
2019-01-29T07:35:36.931Z,1760
2019-01-29T07:36:06.964Z,1643
2019-01-29T07:36:36.994Z,1530
2019-01-29T07:37:07.012Z,1650
2019-01-29T07:37:37.076Z,1763
2019-01-29T07:38:07.076Z,1780
2019-01-29T07:38:37.112Z,1900
2019-01-29T07:39:07.138Z,1893
2019-01-29T07:39:37.182Z,2080
2019-01-29T07:40:07.222Z,2210
2019-01-29T07:40:37.235Z,2510
2019-01-29T07:41:07.263Z,2557
2019-01-29T07:41:37.314Z,2677
2019-01-29T07:42:07.326Z,2827
2019-01-29T07:42:37.363Z,2817
2019-01-29T07:43:07.382Z,2667
2019-01-29T07:43:37.424Z,2640
2019-01-29T07:44:07.444Z,2683
2019-01-29T07:44:37.565Z,2597
2019-01-29T07:45:07.507Z,2640
2019-01-29T07:45:37.529Z,2710
2019-01-29T07:46:07.576Z,2693
2019-01-29T07:46:37.592Z,2597
2019-01-29T07:47:07.603Z,2530
2019-01-29T07:47:37.631Z,2477
2019-01-29T07:48:37.721Z,2430
2019-01-29T07:49:07.749Z,2540
2019-01-29T07:49:37.774Z,2647
2019-01-29T07:50:07.785Z,2737
2019-01-29T07:50:37.808Z,2713
2019-01-29T07:51:07.876Z,2840
2019-01-29T07:51:37.874Z,2843
2019-01-29T07:52:07.945Z,2930
2019-01-29T07:52:37.944Z,3013
2019-01-29T07:53:08.061Z,3140
2019-01-29T07:53:38.000Z,3200
2019-01-29T07:54:08.086Z,3237
2019-01-29T07:54:38.069Z,3377
2019-01-29T07:55:08.098Z,3517
2019-01-29T07:55:38.152Z,3563
2019-01-29T07:56:08.161Z,3543
2019-01-29T07:56:38.188Z,3680
2019-01-29T07:57:08.257Z,3860
2019-01-29T07:57:38.274Z,3897
2019-01-29T07:58:08.375Z,4107
2019-01-29T07:58:38.352Z,4333
2019-01-29T07:59:08.376Z,4580
2019-01-29T07:59:38.409Z,4907
2019-01-29T08:00:08.457Z,5313
2019-01-29T08:00:38.482Z,5733
2019-01-29T08:01:08.527Z,6103
2019-01-29T08:01:38.516Z,6500
2019-01-29T08:02:08.574Z,6777
2019-01-29T08:02:38.559Z,6747
2019-01-29T08:03:08.674Z,6527
2019-01-29T08:03:38.702Z,6287
2019-01-29T08:04:08.675Z,6103
2019-01-29T08:04:38.692Z,6063
2019-01-29T08:05:08.762Z,6177
2019-01-29T08:05:38.761Z,6210
2019-01-29T08:06:08.782Z,6523
2019-01-29T08:06:38.893Z,6470
2019-01-29T08:07:08.828Z,6290
2019-01-29T08:07:38.881Z,6137
2019-01-29T08:08:08.896Z,6103
2019-01-29T08:08:38.951Z,6263
2019-01-29T08:09:08.964Z,6757
2019-01-29T08:09:39.004Z,7040
2019-01-29T08:10:09.933Z,7007
2019-01-29T08:10:39.115Z,7273
2019-01-29T08:11:09.095Z,7397
2019-01-29T08:11:39.250Z,7547
2019-01-29T08:12:09.135Z,7743
2019-01-29T08:12:39.233Z,7930
2019-01-29T08:13:09.250Z,8070
2019-01-29T08:13:39.304Z,8190
2019-01-29T08:14:09.289Z,8510
2019-01-29T08:14:39.291Z,8697
2019-01-29T08:15:09.385Z,8627
2019-01-29T08:15:39.611Z,8650
2019-01-29T08:16:09.468Z,8423
2019-01-29T08:16:39.461Z,8353
2019-01-29T08:17:09.524Z,8363
2019-01-29T08:17:39.502Z,8373
2019-01-29T08:18:09.544Z,8493
2019-01-29T08:18:39.579Z,8230
2019-01-29T08:19:09.614Z,8060
2019-01-29T08:19:39.664Z,7827
2019-01-29T08:20:09.682Z,7887
2019-01-29T08:20:39.748Z,8150
2019-01-29T08:21:09.739Z,8357
2019-01-29T08:21:39.759Z,8767
2019-01-29T08:22:09.792Z,9320
2019-01-29T08:22:39.846Z,9507
2019-01-29T08:23:09.864Z,9090
2019-01-29T08:23:39.926Z,8500
2019-01-29T08:24:09.916Z,8203
2019-01-29T08:24:39.969Z,8060
2019-01-29T08:25:09.983Z,7867
2019-01-29T08:25:47.543Z,7630
2019-01-29T08:26:10.100Z,7550
2019-01-29T08:26:40.071Z,7663
2019-01-29T08:27:10.120Z,7807
2019-01-29T08:27:40.149Z,8083
2019-01-29T08:28:10.174Z,8437
2019-01-29T08:28:40.181Z,8660
2019-01-29T08:29:10.238Z,8673
2019-01-29T08:29:40.250Z,8620
2019-01-29T08:30:10.278Z,8693
2019-01-29T08:30:40.298Z,8543
2019-01-29T08:31:10.349Z,8310
2019-01-29T08:31:40.376Z,8007
2019-01-29T08:32:10.402Z,7740
2019-01-29T08:32:40.420Z,7607
2019-01-29T08:33:10.434Z,7590
2019-01-29T08:33:40.488Z,7663
2019-01-29T08:34:10.500Z,7837
2019-01-29T08:34:40.543Z,8273
2019-01-29T08:35:10.566Z,8790
2019-01-29T08:35:41.574Z,9523
2019-01-29T08:36:10.617Z,10087
2019-01-29T08:36:40.654Z,10197
2019-01-29T08:37:10.687Z,9950
2019-01-29T08:37:40.723Z,9553
2019-01-29T08:38:10.740Z,9483
2019-01-29T08:38:40.776Z,9537
2019-01-29T08:39:10.804Z,8957
2019-01-29T08:39:40.853Z,8703
2019-01-29T08:40:10.888Z,8557
2019-01-29T08:40:40.895Z,8433
2019-01-29T08:41:10.949Z,8293
2019-01-29T08:41:40.948Z,8163
2019-01-29T08:42:10.983Z,8113
2019-01-29T08:42:41.034Z,8457
2019-01-29T08:43:11.072Z,7787
2019-01-29T08:43:41.108Z,7070
2019-01-29T08:44:11.130Z,6577
2019-01-29T08:44:41.190Z,6310
2019-01-29T08:45:11.162Z,6110
2019-01-29T08:45:41.276Z,5973
2019-01-29T08:46:11.256Z,5827
2019-01-29T08:46:41.300Z,5713
2019-01-29T08:47:11.295Z,5617
2019-01-29T08:47:41.349Z,5530
2019-01-29T08:48:11.386Z,5450
2019-01-29T08:48:41.424Z,5400
2019-01-29T08:49:11.453Z,5357
2019-01-29T08:49:41.478Z,5340
2019-01-29T08:50:11.505Z,5333
2019-01-29T08:50:41.548Z,5320
2019-01-29T08:51:11.563Z,5313
2019-01-29T08:51:41.567Z,5303
2019-01-29T08:52:11.735Z,5290
2019-01-29T08:52:41.659Z,5297
2019-01-29T08:53:11.885Z,5313
2019-01-29T08:53:41.733Z,5340
2019-01-29T08:54:11.713Z,5390
2019-01-29T08:54:41.784Z,5443
2019-01-29T08:55:11.787Z,5503
2019-01-29T08:55:41.936Z,5543
2019-01-29T08:56:11.865Z,5570
2019-01-29T08:56:41.904Z,5573
2019-01-29T08:57:11.928Z,5563
2019-01-29T08:57:41.931Z,5567
2019-01-29T08:58:11.983Z,5580
2019-01-29T08:58:42.028Z,5593
2019-01-29T08:59:12.052Z,5603
2019-01-29T08:59:42.100Z,5613
2019-01-29T09:00:12.132Z,5647
2019-01-29T09:00:42.114Z,5680
2019-01-29T09:01:12.168Z,5740
2019-01-29T09:01:42.205Z,5820
2019-01-29T09:02:12.228Z,5953
2019-01-29T09:02:42.277Z,6103
2019-01-29T09:03:12.281Z,6367
2019-01-29T09:03:42.298Z,6813
2019-01-29T09:04:12.350Z,8080
2019-01-29T09:04:42.375Z,8907
2019-01-29T09:05:12.416Z,13087
2019-01-29T09:05:42.452Z,15810
2019-01-29T09:06:12.520Z,16680
2019-01-29T09:06:42.519Z,15073
2019-01-29T09:07:12.544Z,15063
2019-01-29T09:07:42.574Z,9227
2019-01-29T09:08:13.179Z,10717
2019-01-29T09:08:42.639Z,11277
2019-01-29T09:09:12.643Z,9980
2019-01-29T09:09:42.663Z,10080
2019-01-29T09:10:12.728Z,16823
2019-01-29T09:10:42.764Z,17780
2019-01-29T09:11:12.832Z,17750
2019-01-29T09:11:42.821Z,17770
2019-01-29T09:12:12.906Z,17790
2019-01-29T09:12:42.888Z,17620
2019-01-29T09:13:12.913Z,17497
2019-01-29T09:13:42.950Z,17313
2019-01-29T09:14:12.975Z,17517
2019-01-29T09:14:43.067Z,18057
2019-01-29T09:15:13.046Z,17917
2019-01-29T09:15:43.068Z,16993
2019-01-29T09:16:13.153Z,16693
2019-01-29T09:16:43.097Z,16733
2019-01-29T09:17:13.221Z,17077
2019-01-29T09:17:43.186Z,15907
2019-01-29T09:18:13.254Z,16573
2019-01-29T09:18:43.221Z,16987
2019-01-29T09:19:13.321Z,17750
2019-01-29T09:19:43.340Z,18643
2019-01-29T09:20:13.408Z,19297
2019-01-29T09:20:43.387Z,19237
2019-01-29T09:21:13.441Z,19057
2019-01-29T09:21:43.433Z,14733
2019-01-29T09:22:13.431Z,18790
2019-01-29T09:22:43.514Z,17617
2019-01-29T09:23:13.532Z,20373
2019-01-29T09:23:43.566Z,20540
2019-01-29T09:24:13.620Z,21073
2019-01-29T09:24:43.615Z,21527
2019-01-29T09:25:19.481Z,22203
2019-01-29T09:25:43.651Z,23280
2019-01-29T09:26:13.735Z,24503
2019-01-29T09:26:43.730Z,25307
2019-01-29T09:27:13.775Z,23410
2019-01-29T09:27:44.044Z,23397
2019-01-29T09:28:18.440Z,22213
2019-01-29T09:28:43.840Z,23990
2019-01-29T09:29:17.717Z,21713
2019-01-29T09:29:43.896Z,22883
2019-01-29T09:30:13.999Z,27733
2019-01-29T09:30:44.031Z,28210
2019-01-29T09:31:14.040Z,28177
2019-01-29T09:31:44.016Z,27703
2019-01-29T09:32:14.046Z,24243
2019-01-29T09:32:44.132Z,23893
2019-01-29T09:33:14.113Z,22187
2019-01-29T09:33:44.197Z,21273
2019-01-29T09:34:14.171Z,19717
2019-01-29T09:34:44.261Z,18790
2019-01-29T09:35:14.323Z,18503
2019-01-29T09:35:44.285Z,19197
2019-01-29T09:36:14.316Z,19767
2019-01-29T09:36:44.384Z,19607
2019-01-29T09:37:14.437Z,19017
2019-01-29T09:37:44.467Z,18193
2019-01-29T09:38:14.487Z,17230
2019-01-29T09:38:44.517Z,16070
2019-01-29T09:39:14.539Z,15037
2019-01-29T09:39:44.521Z,14367
2019-01-29T09:40:14.638Z,14097
2019-01-29T09:40:44.631Z,13927
2019-01-29T09:41:14.645Z,13613
2019-01-29T09:41:44.873Z,13417
2019-01-29T09:42:14.749Z,13620
2019-01-29T09:42:44.783Z,14100
2019-01-29T09:43:14.761Z,14923
2019-01-29T09:43:44.803Z,15883
2019-01-29T09:44:14.839Z,19733
2019-01-29T09:44:44.900Z,20340
2019-01-29T09:45:14.941Z,17873
2019-01-29T09:45:44.934Z,18163
2019-01-29T09:46:14.957Z,17987
2019-01-29T09:46:45.005Z,17813
2019-01-29T09:47:15.033Z,17360
2019-01-29T09:47:45.065Z,16460
2019-01-29T09:48:15.082Z,15553
2019-01-29T09:48:45.107Z,14877
2019-01-29T09:49:15.141Z,14763
2019-01-29T09:49:45.134Z,15107
2019-01-29T09:50:15.249Z,15567
2019-01-29T09:50:45.405Z,15750
2019-01-29T09:51:15.267Z,16070
2019-01-29T09:51:45.324Z,16563
2019-01-29T09:52:15.336Z,16917
2019-01-29T09:52:45.361Z,16777
2019-01-29T09:53:15.368Z,16227
2019-01-29T09:53:45.422Z,15640
2019-01-29T09:54:15.442Z,15570
2019-01-29T09:54:45.471Z,15547
2019-01-29T09:55:15.512Z,15733
2019-01-29T09:55:45.506Z,15973
2019-01-29T09:56:15.559Z,16290
2019-01-29T09:56:45.601Z,16583
2019-01-29T09:57:15.659Z,16897
2019-01-29T09:57:45.647Z,17140
2019-01-29T09:58:15.677Z,17570
2019-01-29T09:58:45.680Z,18047
2019-01-29T09:59:15.749Z,18680
2019-01-29T09:59:45.809Z,19673
2019-01-29T10:00:15.931Z,20617
2019-01-29T10:00:45.849Z,21123
2019-01-29T10:01:15.865Z,20730
2019-01-29T10:01:45.923Z,19623
2019-01-29T10:02:15.973Z,18280
2019-01-29T10:02:45.925Z,16990
2019-01-29T10:03:15.998Z,16083
2019-01-29T10:03:46.171Z,15453
2019-01-29T10:04:16.061Z,15003
2019-01-29T10:04:46.323Z,14880
2019-01-29T10:05:16.203Z,15037
2019-01-29T10:05:46.144Z,15263
2019-01-29T10:06:16.176Z,15517
2019-01-29T10:06:46.210Z,15790
2019-01-29T10:07:16.257Z,15973
2019-01-29T10:07:46.238Z,15980
2019-01-29T10:08:16.310Z,15940
2019-01-29T10:08:46.355Z,15897
2019-01-29T10:09:16.399Z,15863
2019-01-29T10:09:46.377Z,15800
2019-01-29T10:10:16.438Z,15837
2019-01-29T10:10:46.454Z,15830
2019-01-29T10:11:16.477Z,15507
2019-01-29T10:11:46.541Z,15280
2019-01-29T10:12:16.522Z,15117
2019-01-29T10:12:46.576Z,14960
2019-01-29T10:13:16.602Z,14830
2019-01-29T10:13:46.599Z,14750
2019-01-29T10:14:16.648Z,14793
2019-01-29T10:14:46.683Z,14933
2019-01-29T10:15:16.749Z,15137
2019-01-29T10:15:46.755Z,15507
2019-01-29T10:16:16.765Z,16077
2019-01-29T10:16:46.783Z,16583
2019-01-29T10:17:16.850Z,17017
2019-01-29T10:17:46.849Z,17377
2019-01-29T10:18:16.889Z,17730
2019-01-29T10:18:46.959Z,18190
2019-01-29T10:19:16.937Z,18763
2019-01-29T10:19:46.966Z,19330
2019-01-29T10:20:17.059Z,19810
2019-01-29T10:20:47.053Z,20203
2019-01-29T10:21:17.095Z,20610
2019-01-29T10:21:47.088Z,20960
2019-01-29T10:22:17.127Z,21123
2019-01-29T10:22:47.202Z,21350
2019-01-29T10:23:17.273Z,21540
2019-01-29T10:23:47.237Z,21517
2019-01-29T10:24:17.290Z,21347
2019-01-29T10:24:47.306Z,21057
2019-01-29T10:25:17.407Z,20840
2019-01-29T10:25:47.377Z,20713
2019-01-29T10:26:17.407Z,20417
2019-01-29T10:26:47.442Z,20057
2019-01-29T10:27:17.475Z,19670
2019-01-29T10:27:47.507Z,19157
2019-01-29T10:28:17.561Z,18613
2019-01-29T10:28:47.557Z,18030
2019-01-29T10:29:17.604Z,17550
2019-01-29T10:29:47.614Z,17310
2019-01-29T10:30:17.731Z,17383
2019-01-29T10:30:47.672Z,17567
2019-01-29T10:31:17.777Z,17990
2019-01-29T10:31:47.758Z,18610
2019-01-29T10:32:17.821Z,19330
2019-01-29T10:32:47.794Z,19993
2019-01-29T10:33:17.831Z,20387
2019-01-29T10:33:47.864Z,20683
2019-01-29T10:34:17.902Z,20897
2019-01-29T10:34:47.981Z,21147
2019-01-29T10:35:18.053Z,21437
2019-01-29T10:35:48.008Z,21767
2019-01-29T10:36:17.988Z,22047
2019-01-29T10:36:48.040Z,22183
2019-01-29T10:37:18.073Z,22293
2019-01-29T10:37:48.101Z,22400
2019-01-29T10:38:18.181Z,22537
2019-01-29T10:38:48.162Z,22697
2019-01-29T10:39:18.223Z,22827
2019-01-29T10:39:48.233Z,23170
2019-01-29T10:40:18.250Z,23793
2019-01-29T10:40:48.281Z,24560
2019-01-29T10:41:18.332Z,25293
2019-01-29T10:41:48.355Z,25780
2019-01-29T10:42:18.417Z,25923
2019-01-29T10:42:48.424Z,25713
2019-01-29T10:43:18.470Z,25003
2019-01-29T10:43:48.480Z,24450
2019-01-29T10:44:18.496Z,24320
2019-01-29T10:44:48.514Z,23880
2019-01-29T10:45:18.688Z,23517
2019-01-29T10:45:48.599Z,23037
2019-01-29T10:46:18.683Z,22403
2019-01-29T10:46:48.719Z,21520
2019-01-29T10:47:18.735Z,20513
2019-01-29T10:47:48.691Z,19540
2019-01-29T10:48:18.775Z,18913
2019-01-29T10:48:48.816Z,18557
2019-01-29T10:49:18.832Z,19213
2019-01-29T10:49:48.882Z,19837
2019-01-29T10:50:18.958Z,20087
2019-01-29T10:50:48.945Z,20430
2019-01-29T10:51:18.977Z,20383
2019-01-29T10:51:48.997Z,20580
2019-01-29T10:52:19.040Z,20907
2019-01-29T10:52:49.081Z,21297
2019-01-29T10:53:19.090Z,21550
2019-01-29T10:53:49.127Z,21660
2019-01-29T10:54:19.150Z,22150
2019-01-29T10:54:49.183Z,22353
2019-01-29T10:55:19.250Z,22550
2019-01-29T10:55:49.211Z,22920
2019-01-29T10:56:19.271Z,23063
2019-01-29T10:56:49.302Z,22957
2019-01-29T10:57:19.370Z,22793
2019-01-29T10:57:49.379Z,22663
2019-01-29T10:58:19.336Z,22480
2019-01-29T10:58:49.398Z,22267
2019-01-29T10:59:19.414Z,21973
2019-01-29T10:59:49.453Z,21670
2019-01-29T11:00:19.597Z,21403
2019-01-29T11:00:49.504Z,21223
2019-01-29T11:01:19.558Z,21177
2019-01-29T11:01:49.592Z,21163
2019-01-29T11:02:19.589Z,21053
2019-01-29T11:02:49.667Z,20797
2019-01-29T11:03:19.647Z,20910
2019-01-29T11:03:49.696Z,21230
2019-01-29T11:04:19.740Z,21500
2019-01-29T11:04:49.734Z,21447
2019-01-29T11:05:19.841Z,21183
2019-01-29T11:05:49.795Z,20920
2019-01-29T11:06:19.841Z,20643
2019-01-29T11:06:49.872Z,20307
2019-01-29T11:07:19.899Z,19980
2019-01-29T11:07:49.915Z,19783
2019-01-29T11:08:19.985Z,19713
2019-01-29T11:08:49.989Z,19747
2019-01-29T11:09:25.337Z,19870
2019-01-29T11:09:50.073Z,20150
2019-01-29T11:10:20.127Z,20470
2019-01-29T11:10:50.114Z,20860
2019-01-29T11:11:20.157Z,21423
2019-01-29T11:11:50.165Z,21883
2019-01-29T11:12:20.200Z,22317
2019-01-29T11:12:50.303Z,22703
2019-01-29T11:13:20.282Z,22947
2019-01-29T11:13:50.342Z,23257
2019-01-29T11:14:20.363Z,23777
2019-01-29T11:14:50.440Z,24177
2019-01-29T11:15:20.942Z,24360
2019-01-29T11:15:50.510Z,24570
2019-01-29T11:16:20.442Z,24790
2019-01-29T11:16:50.539Z,25193
2019-01-29T11:17:20.505Z,25813
2019-01-29T11:17:50.613Z,26270
2019-01-29T11:18:20.620Z,26677
2019-01-29T11:18:50.661Z,27153
2019-01-29T11:19:20.673Z,27287
2019-01-29T11:19:50.739Z,27310
2019-01-29T11:20:20.713Z,27407
2019-01-29T11:20:50.783Z,27357
2019-01-29T11:21:20.748Z,27327
2019-01-29T11:21:50.821Z,27373
2019-01-29T11:22:20.828Z,27330
2019-01-29T11:22:50.932Z,27403
2019-01-29T11:23:20.877Z,27570
2019-01-29T11:23:50.971Z,27780
2019-01-29T11:24:20.962Z,27897
2019-01-29T11:24:50.996Z,27977
2019-01-29T11:25:21.026Z,28040
2019-01-29T11:25:55.853Z,28053
2019-01-29T11:26:21.103Z,27993
2019-01-29T11:26:51.174Z,27810
2019-01-29T11:27:21.161Z,27607
2019-01-29T11:27:51.212Z,27453
2019-01-29T11:28:21.231Z,27270
2019-01-29T11:28:51.212Z,27130
2019-01-29T11:29:21.295Z,26970
2019-01-29T11:29:51.329Z,26773
2019-01-29T11:30:21.361Z,26567
2019-01-29T11:30:51.389Z,26340
2019-01-29T11:31:21.371Z,26120
2019-01-29T11:31:51.456Z,26033
2019-01-29T11:32:21.472Z,25970
2019-01-29T11:32:51.495Z,26003
2019-01-29T11:33:21.522Z,26037
2019-01-29T11:33:51.575Z,26030
2019-01-29T11:34:21.583Z,25997
2019-01-29T11:34:51.628Z,26053
2019-01-29T11:35:21.711Z,26133
2019-01-29T11:35:51.712Z,26097
2019-01-29T11:36:21.710Z,25940
2019-01-29T11:36:51.750Z,25643
2019-01-29T11:37:21.771Z,25353
2019-01-29T11:37:51.858Z,24947
2019-01-29T11:38:21.831Z,24663
2019-01-29T11:38:51.874Z,24427
2019-01-29T11:39:21.857Z,24330
2019-01-29T11:39:51.931Z,24353
2019-01-29T11:40:21.994Z,24260
2019-01-29T11:40:51.994Z,24107
2019-01-29T11:41:21.983Z,23910
2019-01-29T11:41:52.034Z,23710
2019-01-29T11:42:22.087Z,23470
2019-01-29T11:42:52.144Z,23183
2019-01-29T11:43:22.166Z,22930
2019-01-29T11:43:52.186Z,22733
2019-01-29T11:44:22.203Z,22450
2019-01-29T11:44:52.247Z,22097
2019-01-29T11:45:22.331Z,21873
2019-01-29T11:45:52.311Z,21687
2019-01-29T11:46:22.288Z,21460
2019-01-29T11:46:52.394Z,21313
2019-01-29T11:47:22.396Z,21137
2019-01-29T11:47:52.426Z,20973
2019-01-29T11:48:22.547Z,20830
2019-01-29T11:48:52.459Z,20753
2019-01-29T11:49:22.520Z,20820
2019-01-29T11:49:52.508Z,21123
2019-01-29T11:50:22.681Z,21600
2019-01-29T11:50:52.635Z,21943
2019-01-29T11:51:22.639Z,22140
2019-01-29T11:51:52.652Z,22323
2019-01-29T11:52:22.672Z,22353
2019-01-29T11:52:52.726Z,22413
2019-01-29T11:53:22.730Z,22247
2019-01-29T11:53:52.784Z,22337
2019-01-29T11:54:22.797Z,22613
2019-01-29T11:54:52.858Z,22870
2019-01-29T11:55:22.864Z,23040
2019-01-29T11:55:52.891Z,23077
2019-01-29T11:56:22.904Z,22883
2019-01-29T11:56:52.933Z,22570
2019-01-29T11:57:23.005Z,22277
2019-01-29T11:57:53.330Z,21907
2019-01-29T11:58:23.023Z,21337
2019-01-29T11:58:53.062Z,21167
2019-01-29T11:59:23.115Z,20610
2019-01-29T11:59:53.142Z,20557
2019-01-29T12:00:23.246Z,20567
2019-01-29T12:00:53.216Z,20767
2019-01-29T12:01:23.254Z,22367
2019-01-29T12:01:53.287Z,22063
2019-01-29T12:02:28.179Z,21570
2019-01-29T12:02:53.339Z,21273
2019-01-29T12:03:23.400Z,21107
2019-01-29T12:03:53.453Z,21057
2019-01-29T12:04:24.217Z,21223
2019-01-29T12:04:53.454Z,21403
2019-01-29T12:05:23.536Z,21570
2019-01-29T12:05:53.528Z,21753
2019-01-29T12:06:23.537Z,21653
2019-01-29T12:06:53.596Z,21567
2019-01-29T12:07:23.580Z,21363
2019-01-29T12:07:53.709Z,21280
2019-01-29T12:08:23.638Z,21267
2019-01-29T12:08:53.704Z,21387
2019-01-29T12:09:23.762Z,21643
2019-01-29T12:09:53.758Z,21880
2019-01-29T12:10:23.813Z,22093
2019-01-29T12:10:53.925Z,22237
2019-01-29T12:11:23.924Z,22327
2019-01-29T12:11:53.885Z,22350
2019-01-29T12:12:23.900Z,22150
2019-01-29T12:12:53.944Z,21777
2019-01-29T12:13:24.011Z,21470
2019-01-29T12:13:54.013Z,21310
2019-01-29T12:14:24.072Z,21140
2019-01-29T12:14:54.063Z,21017
2019-01-29T12:15:24.193Z,20907
2019-01-29T12:15:54.149Z,20740
2019-01-29T12:16:24.169Z,20697
2019-01-29T12:16:54.201Z,20920
2019-01-29T12:17:24.218Z,21373
2019-01-29T12:17:54.407Z,21707
2019-01-29T12:18:24.343Z,21907
2019-01-29T12:18:54.316Z,21943
2019-01-29T12:19:24.377Z,21787
2019-01-29T12:19:54.384Z,21577
2019-01-29T12:20:24.530Z,21373
2019-01-29T12:20:54.465Z,21203
2019-01-29T12:21:24.501Z,21120
2019-01-29T12:21:54.491Z,21060
2019-01-29T12:22:24.563Z,20963
2019-01-29T12:22:54.570Z,20667
2019-01-29T12:23:24.645Z,20163
2019-01-29T12:23:54.633Z,19583
2019-01-29T12:24:24.685Z,18903
2019-01-29T12:24:54.664Z,18127
2019-01-29T12:25:24.767Z,17567
2019-01-29T12:25:54.730Z,17167
2019-01-29T12:26:24.799Z,16980
2019-01-29T12:26:54.858Z,16930
2019-01-29T12:27:24.814Z,17023
2019-01-29T12:27:54.840Z,17197
2019-01-29T12:28:24.929Z,17397
2019-01-29T12:28:55.568Z,17767
2019-01-29T12:29:25.014Z,18070
2019-01-29T12:29:54.989Z,18337
2019-01-29T12:30:25.100Z,18550
2019-01-29T12:30:55.095Z,18903
2019-01-29T12:31:25.100Z,19300
2019-01-29T12:31:55.129Z,19460
2019-01-29T12:32:25.212Z,19623
2019-01-29T12:32:55.204Z,19817
2019-01-29T12:33:25.232Z,20047
2019-01-29T12:33:55.275Z,20330
2019-01-29T12:34:25.292Z,20537
2019-01-29T12:34:55.366Z,20583
2019-01-29T12:35:25.381Z,20553
2019-01-29T12:35:55.368Z,20380
2019-01-29T12:36:25.379Z,20190
2019-01-29T12:36:55.475Z,20037
2019-01-29T12:37:55.476Z,20203
2019-01-29T12:38:25.556Z,20537
2019-01-29T12:38:55.590Z,20997
2019-01-29T12:39:25.609Z,21467
2019-01-29T12:39:55.620Z,21897
2019-01-29T12:40:25.669Z,22220
2019-01-29T12:40:55.664Z,22440
2019-01-29T12:41:25.681Z,22660
2019-01-29T12:41:55.697Z,22870
2019-01-29T12:42:25.755Z,22997
2019-01-29T12:42:55.772Z,23053
2019-01-29T12:43:25.849Z,23103
2019-01-29T12:43:55.853Z,23130
2019-01-29T12:44:25.874Z,23120
2019-01-29T12:44:55.885Z,23133
2019-01-29T12:45:26.002Z,23207
2019-01-29T12:45:55.966Z,23253
2019-01-29T12:46:26.008Z,23250
2019-01-29T12:46:56.053Z,23147
2019-01-29T12:47:26.046Z,22930
2019-01-29T12:47:56.135Z,22610
2019-01-29T12:48:26.101Z,22210
2019-01-29T12:48:56.214Z,21853
2019-01-29T12:49:26.201Z,21557
2019-01-29T12:49:56.281Z,21327
2019-01-29T12:50:26.288Z,21043
2019-01-29T12:50:56.299Z,20743
2019-01-29T12:51:26.283Z,20357
2019-01-29T12:51:56.356Z,20090
2019-01-29T12:52:26.397Z,20023
2019-01-29T12:52:56.438Z,20107
2019-01-29T12:53:26.452Z,20163
2019-01-29T12:53:56.547Z,20190
2019-01-29T12:54:26.518Z,20170
2019-01-29T12:54:56.549Z,20153
2019-01-29T12:55:26.588Z,20140
2019-01-29T12:55:56.587Z,20167
2019-01-29T12:56:26.621Z,20257
2019-01-29T12:56:56.621Z,20390
2019-01-29T12:57:26.712Z,20553
2019-01-29T12:57:56.723Z,20703
2019-01-29T12:58:26.751Z,20857
2019-01-29T12:58:56.786Z,20960
2019-01-29T12:59:26.778Z,20943
2019-01-29T12:59:56.813Z,20917
2019-01-29T13:00:26.889Z,20840
2019-01-29T13:00:56.937Z,20650
2019-01-29T13:01:26.929Z,20453
2019-01-29T13:01:56.981Z,20317
2019-01-29T13:02:27.039Z,20197
2019-01-29T13:02:57.028Z,20173
2019-01-29T13:03:27.052Z,20327
2019-01-29T13:03:57.100Z,20603
2019-01-29T13:04:27.114Z,20767
2019-01-29T13:04:57.177Z,20830
2019-01-29T13:05:27.163Z,20953
2019-01-29T13:05:57.226Z,21073
2019-01-29T13:06:27.207Z,21080
2019-01-29T13:06:57.276Z,21077
2019-01-29T13:07:27.316Z,21043
2019-01-29T13:07:57.332Z,20927
2019-01-29T13:08:27.361Z,20697
2019-01-29T13:08:57.405Z,20447
2019-01-29T13:09:27.421Z,20050
2019-01-29T13:09:57.456Z,19527
2019-01-29T13:10:27.536Z,19157
2019-01-29T13:10:57.547Z,18683
2019-01-29T13:11:27.541Z,18213